Time;durP1;ratioP1;P1;durP2;ratioP2;P2;SDS_P1;SDS_P2;PMS_P1;PMS_P2;Temp;Humidity;BMP_temperature;BMP_pressure;BME280_temperature;BME280_humidity;BME280_pressure;Samples;Min_cycle;Max_cycle;Signal;HPM_P1;HPM_P2
2022/10/01 00:02:02;;;;;;;9.77;8.27;;;17.20;97.30;;;;;;4984820;28;20206;-80
2022/10/01 00:04:31;;;;;;;11.67;9.00;;;17.20;97.30;;;;;;4990876;28;20249;-80
2022/10/01 00:07:03;;;;;;;11.13;9.50;;;17.20;97.30;;;;;;4977700;28;20645;-80
2022/10/01 00:09:31;;;;;;;11.73;10.63;;;17.20;97.20;;;;;;4986975;28;20244;-80
2022/10/01 00:11:58;;;;;;;13.33;10.93;;;17.20;97.20;;;;;;4984649;28;20538;-80
2022/10/01 00:14:26;;;;;;;14.23;12.00;;;17.20;97.20;;;;;;4992940;28;20258;-80
2022/10/01 00:16:53;;;;;;;11.83;10.73;;;17.20;97.20;;;;;;4996765;28;20209;-80
2022/10/01 00:19:21;;;;;;;15.67;13.23;;;17.30;97.20;;;;;;4997072;28;20221;-79
2022/10/01 00:21:48;;;;;;;16.83;14.20;;;17.30;97.20;;;;;;4992488;28;20201;-79
2022/10/01 00:24:15;;;;;;;15.40;13.80;;;17.30;97.10;;;;;;4996588;28;20216;-79
2022/10/01 00:26:44;;;;;;;15.87;13.40;;;17.30;97.10;;;;;;4996970;28;20221;-80
2022/10/01 00:29:13;;;;;;;17.13;14.20;;;17.30;97.10;;;;;;4977712;28;20244;-80
2022/10/01 00:31:41;;;;;;;16.70;15.00;;;17.30;97.10;;;;;;4987599;28;20212;-80
2022/10/01 00:34:11;;;;;;;17.00;14.67;;;17.30;97.10;;;;;;4975253;28;20214;-80
2022/10/01 00:36:38;;;;;;;22.67;16.57;;;17.30;97.10;;;;;;4983681;28;20198;-79
2022/10/01 00:39:05;;;;;;;20.37;15.63;;;17.30;96.90;;;;;;4994973;28;20307;-80
2022/10/01 00:41:33;;;;;;;17.53;13.93;;;17.30;96.80;;;;;;4976701;28;20212;-81
2022/10/01 00:44:31;;;;;;;17.70;15.60;;;17.30;96.80;;;;;;4991512;28;20227;-80
2022/10/01 00:47:09;;;;;;;17.83;14.47;;;17.20;96.70;;;;;;4979664;28;20208;-80
2022/10/01 00:49:38;;;;;;;17.83;13.70;;;17.20;96.70;;;;;;4995914;28;20309;-80
2022/10/01 00:52:09;;;;;;;16.57;14.87;;;17.20;96.70;;;;;;4995585;28;20240;-79
2022/10/01 00:54:40;;;;;;;16.73;15.03;;;17.20;96.70;;;;;;4994389;28;20201;-80
2022/10/01 00:57:09;;;;;;;16.37;14.03;;;17.10;96.70;;;;;;4995085;28;20288;-79
2022/10/01 00:59:36;;;;;;;16.83;14.63;;;17.10;96.80;;;;;;4993606;28;20204;-80
2022/10/01 01:02:04;;;;;;;25.20;15.63;;;17.10;96.90;;;;;;4976208;28;20232;-81
2022/10/01 01:04:31;;;;;;;17.57;15.47;;;17.00;96.90;;;;;;4980803;28;20284;-80
2022/10/01 01:07:02;;;;;;;19.73;15.07;;;17.00;97.00;;;;;;4986325;28;20583;-80
2022/10/01 01:09:36;;;;;;;19.30;14.80;;;17.00;97.10;;;;;;4975869;28;20224;-79
2022/10/01 01:12:03;;;;;;;17.97;15.13;;;17.00;97.10;;;;;;4995995;28;20220;-81
2022/10/01 01:14:56;;;;;;;17.97;15.37;;;17.00;97.20;;;;;;4994554;28;20202;-80
2022/10/01 01:17:32;;;;;;;18.20;15.33;;;16.90;97.20;;;;;;4993116;28;20223;-80
2022/10/01 01:20:36;;;;;;;17.13;14.67;;;16.90;97.20;;;;;;4981037;28;20212;-80
2022/10/01 01:23:16;;;;;;;15.80;14.07;;;16.90;97.20;;;;;;4996036;28;20561;-80
2022/10/01 01:25:48;;;;;;;17.50;14.30;;;16.90;97.20;;;;;;4994884;28;20641;-80
2022/10/01 01:28:23;;;;;;;19.60;13.97;;;16.90;97.30;;;;;;4996938;28;20539;-80
2022/10/01 01:30:57;;;;;;;15.57;13.97;;;16.80;97.30;;;;;;4996040;28;20224;-82
2022/10/01 01:33:27;;;;;;;15.23;13.33;;;16.80;97.40;;;;;;4997012;28;20557;-80
2022/10/01 01:36:06;;;;;;;16.67;14.03;;;16.80;97.40;;;;;;4992133;28;20635;-80
2022/10/01 01:38:37;;;;;;;14.30;12.60;;;16.80;97.40;;;;;;4977459;28;20209;-80
2022/10/01 01:41:06;;;;;;;15.07;13.50;;;16.80;97.40;;;;;;4995714;28;20528;-80
2022/10/01 01:43:39;;;;;;;16.40;13.87;;;16.80;97.50;;;;;;4991135;28;20213;-80
2022/10/01 01:46:09;;;;;;;21.70;15.17;;;16.80;97.50;;;;;;4995565;28;20213;-80
2022/10/01 01:48:40;;;;;;;19.03;15.27;;;16.80;97.30;;;;;;4996212;28;21900;-80
2022/10/01 01:51:10;;;;;;;17.93;15.77;;;16.80;97.30;;;;;;4992649;28;20240;-79
2022/10/01 01:53:38;;;;;;;21.93;15.07;;;16.70;97.20;;;;;;4984626;28;20197;-80
2022/10/01 01:56:06;;;;;;;18.93;14.97;;;16.70;97.20;;;;;;4983138;28;20212;-80
2022/10/01 01:58:36;;;;;;;16.73;14.53;;;16.70;97.20;;;;;;4999195;28;20296;-80
2022/10/01 02:01:04;;;;;;;19.07;15.63;;;16.70;97.20;;;;;;4989749;28;20222;-80
2022/10/01 02:03:33;;;;;;;17.87;14.80;;;16.70;97.20;;;;;;5000081;28;20239;-80
2022/10/01 02:06:08;;;;;;;20.93;16.37;;;16.80;97.30;;;;;;4999302;28;20223;-79
2022/10/01 02:09:10;;;;;;;20.50;16.93;;;16.70;97.30;;;;;;4999576;28;20223;-80
2022/10/01 02:11:52;;;;;;;22.90;17.37;;;16.70;97.30;;;;;;5011483;28;20201;-80
2022/10/01 02:14:34;;;;;;;25.40;19.33;;;16.70;97.20;;;;;;4997517;28;20209;-80
2022/10/01 02:17:29;;;;;;;25.97;18.67;;;16.70;97.20;;;;;;4988597;28;20220;-80
2022/10/01 02:20:11;;;;;;;22.47;19.67;;;16.70;97.30;;;;;;4983307;28;20217;-81
2022/10/01 02:22:51;;;;;;;27.73;20.17;;;16.60;97.00;;;;;;4998456;28;20263;-80
2022/10/01 02:25:25;;;;;;;28.70;20.83;;;16.60;97.10;;;;;;4995440;28;20215;-80
2022/10/01 02:28:08;;;;;;;28.27;22.10;;;16.60;97.20;;;;;;4970064;28;20218;-79
2022/10/01 02:30:38;;;;;;;25.33;20.83;;;16.60;97.20;;;;;;4993691;28;20220;-80
2022/10/01 02:33:08;;;;;;;26.13;19.47;;;16.60;97.20;;;;;;4982573;28;20202;-80
2022/10/01 02:35:37;;;;;;;21.13;16.07;;;16.60;97.20;;;;;;4992927;28;20327;-79
2022/10/01 02:38:07;;;;;;;21.20;17.40;;;16.50;97.10;;;;;;4993995;28;20192;-80
2022/10/01 02:40:39;;;;;;;23.13;18.57;;;16.50;97.10;;;;;;4998804;28;20208;-79
2022/10/01 02:43:14;;;;;;;22.70;17.17;;;16.50;97.10;;;;;;4998514;28;20251;-80
2022/10/01 02:45:45;;;;;;;23.80;17.33;;;16.50;97.10;;;;;;4997012;28;20204;-79
2022/10/01 02:48:16;;;;;;;20.17;16.67;;;16.50;97.10;;;;;;4977889;28;20637;-80
2022/10/01 02:51:02;;;;;;;25.57;16.67;;;16.50;97.10;;;;;;4976799;28;20242;-80
2022/10/01 02:53:54;;;;;;;21.70;16.07;;;16.50;97.10;;;;;;4967266;28;20202;-79
2022/10/01 02:59:14;;;;;;;19.63;15.47;;;16.60;97.10;;;;;;4974872;28;20208;-80
2022/10/01 03:01:42;;;;;;;19.83;15.83;;;16.60;97.10;;;;;;4954227;28;20215;-80
2022/10/01 03:04:09;;;;;;;19.80;15.83;;;16.60;97.10;;;;;;4979000;28;20292;-79
2022/10/01 03:06:36;;;;;;;21.97;17.00;;;16.60;97.10;;;;;;4967760;28;20216;-79
2022/10/01 03:09:03;;;;;;;20.70;17.63;;;16.60;97.10;;;;;;4971051;28;20205;-79
2022/10/01 03:11:30;;;;;;;21.47;16.67;;;16.60;97.10;;;;;;4975804;28;20635;-80
2022/10/01 03:13:59;;;;;;;22.83;17.57;;;16.60;97.00;;;;;;4977808;28;20201;-80
2022/10/01 03:16:26;;;;;;;25.93;17.90;;;16.60;97.00;;;;;;4967646;28;20198;-80
2022/10/01 03:18:53;;;;;;;23.63;18.23;;;16.60;97.00;;;;;;4980036;28;20204;-79
2022/10/01 03:21:20;;;;;;;21.90;19.33;;;16.60;97.00;;;;;;4977491;28;20220;-79
2022/10/01 03:23:47;;;;;;;26.07;18.47;;;16.60;96.90;;;;;;4970342;28;20292;-80
2022/10/01 03:26:14;;;;;;;24.83;18.57;;;16.60;96.90;;;;;;4975914;28;20256;-79
2022/10/01 03:28:41;;;;;;;24.30;17.37;;;16.60;96.90;;;;;;4953587;28;20230;-80
2022/10/01 03:31:10;;;;;;;24.07;17.50;;;16.60;96.90;;;;;;4970722;28;20209;-80
2022/10/01 03:33:37;;;;;;;21.23;15.93;;;16.60;96.90;;;;;;4979032;28;20205;-79
2022/10/01 03:36:04;;;;;;;21.40;16.37;;;16.60;96.80;;;;;;4957870;28;20217;-81
2022/10/01 03:38:31;;;;;;;21.23;15.60;;;16.60;96.80;;;;;;4975764;28;20670;-79
2022/10/01 03:40:58;;;;;;;21.20;15.33;;;16.60;96.80;;;;;;4968342;28;20727;-79
2022/10/01 03:43:27;;;;;;;20.87;15.43;;;16.60;96.80;;;;;;4975192;28;20201;-79
2022/10/01 03:45:55;;;;;;;17.03;14.10;;;16.60;96.80;;;;;;4977390;28;20220;-80
2022/10/01 03:48:23;;;;;;;19.23;14.80;;;16.60;96.80;;;;;;4978415;28;20223;-79
2022/10/01 03:50:57;;;;;;;20.00;14.27;;;16.60;96.70;;;;;;4970267;28;20614;-80
2022/10/01 03:53:26;;;;;;;19.90;13.97;;;16.70;96.80;;;;;;4987657;28;20212;-82
2022/10/01 03:55:54;;;;;;;18.33;14.90;;;16.70;96.70;;;;;;4995831;28;20307;-80
2022/10/01 03:58:22;;;;;;;18.37;15.40;;;16.70;96.70;;;;;;4992563;28;20293;-79
2022/10/01 04:00:50;;;;;;;18.00;15.40;;;16.60;96.70;;;;;;4994496;28;20233;-79
2022/10/01 04:03:17;;;;;;;20.37;15.50;;;16.70;96.70;;;;;;4998264;28;20213;-79
2022/10/01 04:05:45;;;;;;;22.67;15.80;;;16.70;96.70;;;;;;4997597;28;20237;-82
2022/10/01 04:08:13;;;;;;;21.90;16.90;;;16.70;96.70;;;;;;4987075;28;20220;-80
2022/10/01 04:10:40;;;;;;;19.47;14.83;;;16.70;96.80;;;;;;4995256;28;20224;-80
2022/10/01 04:13:08;;;;;;;17.67;13.97;;;16.70;96.80;;;;;;4989206;28;20255;-79
2022/10/01 04:15:35;;;;;;;16.87;13.80;;;16.70;96.70;;;;;;4991018;28;20205;-81
2022/10/01 04:18:04;;;;;;;14.87;12.00;;;16.70;96.70;;;;;;4993428;28;20213;-79
2022/10/01 04:20:35;;;;;;;11.87;8.53;;;16.70;96.70;;;;;;4990190;28;20243;-79
2022/10/01 04:23:03;;;;;;;9.17;6.83;;;16.70;96.60;;;;;;4993748;28;20216;-79
2022/10/01 04:25:30;;;;;;;16.87;6.77;;;16.70;96.50;;;;;;4993126;28;20205;-79
2022/10/01 04:28:00;;;;;;;13.03;6.43;;;16.60;96.30;;;;;;4980846;28;20208;-80
2022/10/01 04:30:30;;;;;;;8.67;6.30;;;16.50;96.10;;;;;;4994961;28;20219;-79
2022/10/01 04:32:58;;;;;;;6.80;6.07;;;16.50;96.00;;;;;;4977596;28;20204;-80
2022/10/01 04:35:26;;;;;;;7.43;6.23;;;16.40;95.90;;;;;;4985586;28;20644;-81
2022/10/01 04:38:15;;;;;;;8.93;7.10;;;16.30;95.90;;;;;;4986999;28;20241;-80
2022/10/01 04:40:42;;;;;;;8.10;7.30;;;16.20;95.80;;;;;;4981177;28;20228;-79
2022/10/01 04:43:12;;;;;;;7.77;6.87;;;16.10;95.70;;;;;;4992824;28;20283;-79
2022/10/01 04:45:39;;;;;;;7.97;6.07;;;16.10;95.80;;;;;;4996870;28;20215;-79
2022/10/01 04:48:06;;;;;;;11.03;7.40;;;16.00;95.70;;;;;;4985679;28;20212;-79
2022/10/01 04:50:33;;;;;;;11.60;7.30;;;16.00;95.70;;;;;;4996826;28;20251;-80
2022/10/01 04:53:00;;;;;;;10.87;7.70;;;15.90;95.70;;;;;;4997393;28;20250;-80
2022/10/01 04:55:27;;;;;;;9.43;7.37;;;15.90;95.70;;;;;;4995744;28;20201;-79
2022/10/01 04:57:54;;;;;;;11.83;7.93;;;15.80;95.70;;;;;;4995230;28;20262;-79
2022/10/01 05:00:25;;;;;;;10.13;7.40;;;15.80;95.70;;;;;;4993552;28;20231;-79
2022/10/01 05:02:53;;;;;;;12.27;8.13;;;15.80;95.70;;;;;;4995216;28;20211;-79
2022/10/01 05:05:23;;;;;;;11.33;7.07;;;15.70;95.70;;;;;;4982879;28;20266;-79
2022/10/01 05:07:50;;;;;;;13.03;7.27;;;15.70;95.70;;;;;;4988115;28;20303;-79
2022/10/01 05:10:20;;;;;;;9.20;7.17;;;15.60;95.70;;;;;;4996373;28;20251;-79
2022/10/01 05:12:48;;;;;;;10.20;7.27;;;15.60;95.70;;;;;;4975243;28;20224;-81
2022/10/01 05:15:16;;;;;;;8.63;6.50;;;15.60;95.70;;;;;;4982393;28;20201;-80
2022/10/01 05:17:43;;;;;;;10.57;7.47;;;15.50;95.70;;;;;;4992815;28;20212;-80
2022/10/01 05:20:17;;;;;;;10.33;6.63;;;15.50;95.70;;;;;;4995699;28;20220;-79
2022/10/01 05:22:46;;;;;;;10.57;6.27;;;15.50;95.60;;;;;;4993287;28;20260;-80
2022/10/01 05:25:14;;;;;;;7.70;5.37;;;15.50;95.60;;;;;;4985848;28;20201;-80
2022/10/01 05:27:41;;;;;;;6.40;4.90;;;15.40;95.60;;;;;;4982788;28;20644;-79
2022/10/01 05:30:12;;;;;;;7.63;5.90;;;15.40;95.60;;;;;;4999970;28;20668;-79
2022/10/01 05:32:40;;;;;;;11.23;5.53;;;15.40;95.60;;;;;;4996382;28;20201;-79
2022/10/01 05:35:08;;;;;;;5.63;5.00;;;15.40;95.60;;;;;;4983879;28;20212;-79
2022/10/01 05:37:35;;;;;;;10.93;4.87;;;15.40;95.60;;;;;;4993974;28;20200;-80
2022/10/01 05:40:02;;;;;;;10.07;4.60;;;15.40;95.60;;;;;;4994953;28;20205;-79
2022/10/01 05:42:30;;;;;;;7.77;6.30;;;15.40;95.60;;;;;;4999507;28;20215;-79
2022/10/01 05:44:57;;;;;;;12.33;7.87;;;15.40;95.70;;;;;;4995321;28;20267;-79
2022/10/01 05:47:24;;;;;;;13.43;9.13;;;15.40;95.70;;;;;;4996771;28;20215;-79
2022/10/01 05:49:51;;;;;;;19.60;10.23;;;15.40;95.60;;;;;;4986858;28;20209;-79
2022/10/01 05:52:18;;;;;;;15.73;11.07;;;15.50;95.60;;;;;;4976975;28;20233;-80
2022/10/01 05:54:46;;;;;;;16.57;11.37;;;15.50;95.50;;;;;;4994084;28;20222;-79
2022/10/01 05:57:13;;;;;;;17.10;11.67;;;15.50;95.50;;;;;;4974909;28;20215;-78
2022/10/01 05:59:40;;;;;;;16.43;11.73;;;15.60;95.50;;;;;;4995754;28;20223;-79
2022/10/01 06:02:08;;;;;;;13.80;10.73;;;15.60;95.50;;;;;;4992604;28;20212;-79
2022/10/01 06:04:36;;;;;;;18.33;12.87;;;15.60;95.50;;;;;;4992345;28;20199;-79
2022/10/01 06:07:07;;;;;;;16.23;11.57;;;15.70;95.40;;;;;;4995338;28;20248;-79
2022/10/01 06:09:34;;;;;;;23.23;13.47;;;15.70;95.40;;;;;;4997738;28;20223;-80
2022/10/01 06:12:04;;;;;;;20.03;12.40;;;15.70;95.30;;;;;;4993569;28;20540;-80
2022/10/01 06:14:31;;;;;;;20.87;12.80;;;15.80;95.30;;;;;;4995511;28;20192;-78
2022/10/01 06:16:58;;;;;;;19.10;12.27;;;15.80;95.20;;;;;;4992416;28;20196;-80
2022/10/01 06:19:25;;;;;;;20.40;13.63;;;15.90;95.10;;;;;;4995430;28;20540;-80
2022/10/01 06:21:53;;;;;;;20.90;13.00;;;15.90;95.10;;;;;;4976894;28;20639;-79
2022/10/01 06:24:20;;;;;;;21.07;13.53;;;15.90;95.10;;;;;;4991014;28;20204;-79
2022/10/01 06:26:48;;;;;;;18.53;13.00;;;15.90;95.00;;;;;;4989117;28;20275;-79
2022/10/01 06:29:15;;;;;;;23.33;13.97;;;16.00;95.00;;;;;;4994319;28;20615;-80
2022/10/01 06:31:42;;;;;;;25.87;13.30;;;16.00;94.90;;;;;;4980027;28;20275;-79
2022/10/01 06:34:09;;;;;;;17.70;12.57;;;16.00;94.90;;;;;;4991404;28;20282;-79
2022/10/01 06:36:36;;;;;;;22.73;13.30;;;16.10;94.70;;;;;;4994068;28;20204;-79
2022/10/01 06:39:03;;;;;;;20.27;11.87;;;16.20;94.50;;;;;;4990867;28;20200;-79
2022/10/01 06:41:31;;;;;;;18.20;12.27;;;16.30;94.30;;;;;;4982624;28;20201;-78
2022/10/01 06:43:59;;;;;;;16.70;12.03;;;16.30;94.20;;;;;;4986016;28;20241;-79
2022/10/01 06:46:27;;;;;;;18.33;11.80;;;16.30;94.20;;;;;;4991897;28;20212;-79
2022/10/01 06:48:54;;;;;;;18.00;12.00;;;16.40;94.20;;;;;;4999206;28;20212;-78
2022/10/01 06:52:47;;;;;;;14.90;11.07;;;16.40;94.20;;;;;;4978568;28;20670;-79
2022/10/01 06:54:09;;;;;;;20.80;12.80;;;16.40;94.20;;;;;;4987916;28;20208;-79
2022/10/01 06:56:36;;;;;;;18.77;12.17;;;16.50;94.20;;;;;;4997127;28;20201;-80
2022/10/01 06:59:04;;;;;;;18.30;13.43;;;16.50;94.30;;;;;;4998630;28;20200;-79
2022/10/01 07:01:31;;;;;;;17.67;13.67;;;16.50;94.20;;;;;;4998503;28;20208;-80
2022/10/01 07:03:59;;;;;;;21.87;13.90;;;16.60;94.20;;;;;;4966792;28;20648;-80
2022/10/01 07:06:27;;;;;;;20.27;14.30;;;16.60;94.10;;;;;;4979826;28;20308;-79
2022/10/01 07:08:55;;;;;;;22.63;13.80;;;16.60;94.10;;;;;;4992259;28;20219;-80
2022/10/01 07:11:23;;;;;;;19.60;13.67;;;16.70;94.00;;;;;;4977850;28;20239;-80
2022/10/01 07:13:51;;;;;;;22.70;14.53;;;16.80;94.10;;;;;;4984591;28;20277;-81
2022/10/01 07:16:23;;;;;;;20.27;14.23;;;16.90;94.20;;;;;;4979989;28;20204;-80
2022/10/01 07:18:51;;;;;;;20.93;16.00;;;16.90;94.10;;;;;;4989004;28;20544;-79
2022/10/01 07:21:19;;;;;;;19.83;14.53;;;17.10;94.10;;;;;;4989590;28;20209;-81
2022/10/01 07:23:48;;;;;;;20.50;15.10;;;17.20;94.00;;;;;;4986213;28;20197;-81
2022/10/01 07:26:16;;;;;;;20.83;14.67;;;17.30;94.00;;;;;;4988049;28;20208;-80
2022/10/01 07:28:43;;;;;;;19.67;14.27;;;17.50;94.00;;;;;;4996695;28;20225;-80
2022/10/01 07:31:14;;;;;;;19.30;14.57;;;17.60;93.80;;;;;;4972903;28;20236;-80
2022/10/01 07:33:42;;;;;;;18.43;15.40;;;17.70;93.50;;;;;;4985571;28;20600;-81
2022/10/01 07:36:11;;;;;;;18.90;14.23;;;17.80;93.30;;;;;;4995989;28;20260;-81
2022/10/01 07:38:42;;;;;;;17.47;14.60;;;18.00;93.20;;;;;;4983031;28;20637;-80
2022/10/01 07:41:11;;;;;;;19.97;14.00;;;18.10;92.90;;;;;;4997870;28;20610;-80
2022/10/01 07:43:41;;;;;;;19.23;13.70;;;18.20;92.50;;;;;;4999126;28;20214;-81
2022/10/01 07:46:09;;;;;;;17.33;13.90;;;18.20;92.30;;;;;;4990901;28;20205;-79
2022/10/01 07:48:36;;;;;;;18.63;13.93;;;18.30;92.20;;;;;;4985375;28;20207;-80
2022/10/01 07:51:06;;;;;;;16.17;13.33;;;18.40;92.20;;;;;;4998584;28;20262;-81
2022/10/01 07:53:34;;;;;;;14.30;12.80;;;18.50;92.10;;;;;;4979552;28;20298;-80
2022/10/01 07:56:02;;;;;;;16.30;13.87;;;18.50;91.90;;;;;;4997552;28;20203;-81
2022/10/01 07:58:30;;;;;;;14.83;12.87;;;18.50;91.60;;;;;;4997001;28;20225;-79
2022/10/01 08:01:02;;;;;;;19.43;13.60;;;18.60;91.40;;;;;;4981378;28;20197;-80
2022/10/01 08:03:30;;;;;;;15.97;13.40;;;18.60;91.20;;;;;;4985391;28;20678;-80
2022/10/01 08:05:58;;;;;;;17.73;13.80;;;18.70;91.10;;;;;;4993344;28;20258;-81
2022/10/01 08:08:25;;;;;;;17.57;12.77;;;18.80;91.20;;;;;;4984670;28;20225;-81
2022/10/01 08:10:53;;;;;;;15.40;13.30;;;19.00;90.80;;;;;;4979738;28;20235;-81
2022/10/01 08:13:23;;;;;;;13.47;12.03;;;19.10;90.10;;;;;;4981211;28;20204;-80
2022/10/01 08:15:53;;;;;;;15.87;12.30;;;19.20;90.20;;;;;;4996838;28;20203;-79
2022/10/01 08:18:22;;;;;;;15.50;12.63;;;19.30;89.60;;;;;;4993408;28;20212;-81
2022/10/01 08:20:49;;;;;;;15.10;11.87;;;19.40;89.60;;;;;;4991578;28;20194;-81
2022/10/01 08:23:18;;;;;;;13.17;10.90;;;19.50;89.30;;;;;;4970272;28;20309;-80
2022/10/01 08:25:46;;;;;;;13.13;11.23;;;19.70;89.20;;;;;;4994393;28;20221;-81
2022/10/01 08:28:16;;;;;;;16.37;12.10;;;19.90;86.70;;;;;;4993088;28;20660;-81
2022/10/01 08:30:44;;;;;;;14.30;11.73;;;20.00;85.80;;;;;;4992042;28;20226;-80
2022/10/01 08:33:13;;;;;;;16.30;11.87;;;20.10;84.40;;;;;;4977033;28;20211;-80
2022/10/01 08:35:42;;;;;;;15.47;11.90;;;20.10;83.90;;;;;;4979377;28;20263;-80
2022/10/01 08:38:11;;;;;;;15.87;11.20;;;20.10;84.00;;;;;;4978190;28;20228;-79
2022/10/01 08:40:48;;;;;;;12.90;11.60;;;20.20;83.70;;;;;;4987089;28;20344;-81
2022/10/01 08:43:33;;;;;;;13.33;10.20;;;20.10;82.10;;;;;;4984297;28;20207;-82
2022/10/01 08:46:16;;;;;;;12.93;11.53;;;20.10;81.70;;;;;;4983723;28;20718;-82
2022/10/01 08:48:57;;;;;;;13.83;12.17;;;20.10;82.00;;;;;;4996730;28;20274;-79
2022/10/01 08:51:38;;;;;;;13.03;11.60;;;20.20;81.60;;;;;;4982300;28;20259;-80
2022/10/01 08:54:31;;;;;;;14.17;12.43;;;20.20;81.40;;;;;;4994154;28;20627;-79
2022/10/01 08:57:03;;;;;;;12.67;11.30;;;20.30;82.70;;;;;;4992685;28;20216;-80
2022/10/01 08:59:42;;;;;;;13.17;11.60;;;20.50;82.40;;;;;;4993247;28;20214;-81
2022/10/01 09:02:18;;;;;;;13.33;11.10;;;20.70;81.60;;;;;;4981513;28;20201;-80
2022/10/01 09:04:51;;;;;;;11.80;10.27;;;20.80;80.80;;;;;;4986207;28;20282;-79
2022/10/01 09:07:44;;;;;;;13.37;11.00;;;20.90;81.20;;;;;;4977977;28;20311;-80
2022/10/01 09:10:30;;;;;;;10.97;9.87;;;21.10;80.10;;;;;;4993417;28;20212;-81
2022/10/01 09:13:06;;;;;;;12.83;11.27;;;21.20;79.60;;;;;;4978537;28;20232;-81
2022/10/01 09:16:08;;;;;;;12.70;10.30;;;21.30;78.70;;;;;;4981416;28;20299;-80
2022/10/01 09:18:51;;;;;;;13.13;10.80;;;21.40;78.20;;;;;;5000274;28;20267;-81
2022/10/01 09:21:43;;;;;;;11.33;10.13;;;21.50;78.40;;;;;;4992697;28;20287;-81
2022/10/01 09:24:37;;;;;;;18.23;11.57;;;21.60;77.50;;;;;;4978196;28;20282;-78
2022/10/01 09:27:17;;;;;;;11.57;10.33;;;21.60;77.00;;;;;;4964976;28;20214;-81
2022/10/01 09:30:17;;;;;;;13.80;10.93;;;21.50;76.40;;;;;;4976826;28;20212;-81
2022/10/01 09:32:55;;;;;;;12.47;11.20;;;21.40;76.40;;;;;;4986848;28;20657;-80
2022/10/01 09:35:53;;;;;;;10.57;9.57;;;21.30;77.30;;;;;;4959182;28;20203;-81
2022/10/01 09:38:45;;;;;;;12.00;10.03;;;21.30;77.30;;;;;;4978699;28;20275;-81
2022/10/01 09:41:17;;;;;;;11.70;9.80;;;21.20;75.80;;;;;;4978966;28;20231;-79
2022/10/01 09:43:47;;;;;;;11.17;9.80;;;21.20;75.90;;;;;;4986684;28;20209;-80
2022/10/01 09:46:16;;;;;;;13.80;10.60;;;21.20;74.60;;;;;;4991084;28;20291;-79
2022/10/01 09:49:04;;;;;;;11.93;10.73;;;21.10;75.30;;;;;;4988169;28;20204;-80
2022/10/01 09:51:43;;;;;;;11.80;10.53;;;21.10;76.50;;;;;;4979814;28;20258;-80
2022/10/01 09:54:32;;;;;;;12.03;9.50;;;21.20;75.80;;;;;;4979670;28;20212;-81
2022/10/01 09:57:15;;;;;;;11.47;10.23;;;21.30;76.20;;;;;;4981183;28;20261;-81
2022/10/01 10:00:09;;;;;;;10.63;9.60;;;21.30;76.70;;;;;;4977312;28;20208;-78
2022/10/01 10:02:40;;;;;;;10.53;9.53;;;21.40;76.10;;;;;;4979348;28;20224;-83
2022/10/01 10:05:21;;;;;;;11.10;9.27;;;21.40;75.60;;;;;;4984287;28;20569;-80
2022/10/01 10:07:54;;;;;;;9.53;8.53;;;21.60;73.70;;;;;;4992712;28;20209;-81
2022/10/01 10:10:27;;;;;;;10.30;8.60;;;21.80;75.00;;;;;;4996495;28;20217;-80
2022/10/01 10:12:58;;;;;;;8.77;7.87;;;22.00;75.30;;;;;;4980450;28;20267;-80
2022/10/01 10:15:26;;;;;;;10.90;9.00;;;22.20;74.20;;;;;;4993591;28;20247;-81
2022/10/01 10:18:05;;;;;;;9.13;8.27;;;22.30;73.30;;;;;;4997179;28;20213;-81
2022/10/01 10:20:39;;;;;;;9.37;8.30;;;22.40;73.20;;;;;;4992555;28;20201;-82
2022/10/01 10:23:28;;;;;;;8.37;7.53;;;22.60;73.20;;;;;;4990456;28;20202;-81
2022/10/01 10:26:01;;;;;;;7.53;6.73;;;22.80;72.60;;;;;;4979303;28;20202;-82
2022/10/01 10:28:39;;;;;;;11.50;7.37;;;23.00;72.00;;;;;;4991161;28;20205;-79
2022/10/01 10:31:17;;;;;;;7.50;6.77;;;23.10;71.20;;;;;;4990111;28;20205;-80
2022/10/01 10:34:06;;;;;;;9.43;8.53;;;23.30;70.50;;;;;;4990611;28;20197;-80
2022/10/01 10:36:35;;;;;;;9.10;7.57;;;23.40;69.70;;;;;;5004088;28;20213;-79
2022/10/01 10:39:33;;;;;;;8.10;7.23;;;23.50;69.60;;;;;;4988378;28;20202;-81
2022/10/01 10:42:02;;;;;;;8.00;7.20;;;23.50;68.10;;;;;;4992488;28;20243;-78
2022/10/01 10:44:36;;;;;;;8.43;7.63;;;23.60;68.20;;;;;;4979243;28;20209;-80
2022/10/01 10:47:07;;;;;;;8.00;7.13;;;23.60;68.00;;;;;;4994061;28;20206;-81
2022/10/01 10:50:11;;;;;;;6.60;5.90;;;23.70;67.40;;;;;;4988364;28;20645;-78
2022/10/01 10:52:39;;;;;;;7.77;6.97;;;23.70;67.50;;;;;;4990484;28;20247;-81
2022/10/01 10:55:24;;;;;;;7.70;6.90;;;23.80;67.50;;;;;;4995899;28;20227;-82
2022/10/01 10:57:52;;;;;;;6.93;6.23;;;23.80;67.80;;;;;;4998618;28;20231;-81
2022/10/01 11:00:25;;;;;;;7.00;6.30;;;23.90;67.40;;;;;;4982996;28;20665;-81
2022/10/01 11:03:03;;;;;;;8.90;7.83;;;24.00;66.60;;;;;;4991269;28;20208;-81
2022/10/01 11:05:38;;;;;;;7.37;6.60;;;23.90;66.30;;;;;;4986003;28;20223;-81
2022/10/01 11:08:10;;;;;;;7.93;6.87;;;24.00;66.50;;;;;;4997161;28;20243;-81
2022/10/01 11:11:13;;;;;;;7.03;6.33;;;24.10;66.40;;;;;;4979468;28;20223;-81
2022/10/01 11:14:20;;;;;;;6.13;5.53;;;24.20;66.30;;;;;;4972634;28;20213;-81
2022/10/01 11:17:08;;;;;;;9.07;6.13;;;24.20;65.10;;;;;;4996585;28;20211;-80
2022/10/01 11:20:01;;;;;;;6.57;5.63;;;24.10;64.90;;;;;;4988238;28;20208;-83
2022/10/01 11:22:42;;;;;;;6.60;5.97;;;24.10;65.10;;;;;;4985192;28;20212;-80
2022/10/01 11:25:31;;;;;;;6.43;5.77;;;24.10;65.00;;;;;;4994203;28;20263;-83
2022/10/01 11:28:29;;;;;;;6.53;5.80;;;24.20;64.60;;;;;;5009241;28;20208;-80
2022/10/01 11:31:39;;;;;;;6.03;5.43;;;24.20;64.30;;;;;;4995752;28;20192;-83
2022/10/01 11:34:24;;;;;;;6.10;5.50;;;24.30;64.80;;;;;;4992266;28;20202;-82
2022/10/01 11:37:22;;;;;;;6.73;6.03;;;24.30;64.80;;;;;;4993398;28;20196;-81
2022/10/01 11:39:58;;;;;;;6.93;5.43;;;24.40;64.20;;;;;;4994630;28;20236;-82
2022/10/01 11:42:35;;;;;;;6.17;5.57;;;24.40;64.40;;;;;;4986255;28;20199;-82
2022/10/01 11:45:14;;;;;;;7.40;6.17;;;24.40;64.10;;;;;;4994173;28;20271;-81
2022/10/01 11:48:03;;;;;;;10.43;6.13;;;24.40;64.00;;;;;;4975397;28;20528;-82
2022/10/01 11:50:38;;;;;;;5.93;5.33;;;24.40;63.60;;;;;;4964132;28;20221;-81
2022/10/01 11:53:36;;;;;;;6.57;5.30;;;24.30;64.50;;;;;;4988982;28;20271;-82
2022/10/01 11:59:23;;;;;;;7.70;5.63;;;24.40;64.20;;;;;;4988657;28;20212;-80
2022/10/01 12:02:14;;;;;;;6.90;5.63;;;24.40;63.90;;;;;;4988967;28;20580;-81
2022/10/01 12:04:56;;;;;;;6.73;5.60;;;24.50;63.90;;;;;;4985422;28;20204;-81
2022/10/01 12:07:27;;;;;;;6.23;5.63;;;24.50;64.20;;;;;;4989639;28;20217;-79
2022/10/01 12:10:07;;;;;;;6.90;5.33;;;24.60;63.10;;;;;;4992494;28;20204;-82
2022/10/01 12:12:42;;;;;;;5.87;5.30;;;24.60;62.90;;;;;;4991959;28;20229;-80
2022/10/01 12:15:38;;;;;;;6.90;5.73;;;24.60;63.30;;;;;;4983247;28;20193;-80
2022/10/01 12:18:27;;;;;;;6.80;6.10;;;24.60;61.80;;;;;;4979454;28;20220;-82
2022/10/01 12:21:02;;;;;;;7.60;6.10;;;24.50;60.80;;;;;;4985931;28;20205;-81
2022/10/01 12:23:34;;;;;;;6.50;5.83;;;24.40;61.60;;;;;;4996284;28;20209;-82
2022/10/01 12:26:30;;;;;;;5.87;5.37;;;24.30;62.70;;;;;;4996051;28;20546;-82
2022/10/01 12:29:05;;;;;;;7.73;6.20;;;24.30;62.70;;;;;;4987097;28;20304;-82
2022/10/01 12:31:44;;;;;;;5.93;5.33;;;24.40;62.80;;;;;;4991045;28;20295;-81
2022/10/01 12:34:45;;;;;;;6.57;5.80;;;24.40;63.10;;;;;;4981928;28;20235;-82
2022/10/01 12:37:34;;;;;;;9.20;6.20;;;24.50;62.80;;;;;;4995720;28;20218;-82
2022/10/01 12:40:19;;;;;;;6.27;5.67;;;24.50;63.00;;;;;;4993944;28;20271;-81
2022/10/01 12:43:13;;;;;;;6.07;5.47;;;24.50;62.70;;;;;;4990845;28;20228;-82
2022/10/01 12:46:01;;;;;;;9.30;5.40;;;24.40;62.90;;;;;;4993096;28;20217;-81
2022/10/01 12:48:59;;;;;;;7.13;5.63;;;24.40;62.70;;;;;;4996916;28;20189;-83
2022/10/01 12:51:51;;;;;;;5.87;4.67;;;24.40;62.20;;;;;;4986258;28;20656;-80
2022/10/01 12:54:53;;;;;;;6.23;4.43;;;24.40;61.00;;;;;;4989050;28;20212;-82
2022/10/01 12:57:35;;;;;;;6.73;5.17;;;24.30;62.50;;;;;;4993731;28;20251;-82
2022/10/01 13:00:20;;;;;;;6.17;4.47;;;24.30;62.60;;;;;;5005561;28;20220;-82
2022/10/01 13:03:22;;;;;;;5.83;4.43;;;24.30;63.30;;;;;;4979015;28;20661;-81
2022/10/01 13:06:13;;;;;;;7.80;5.17;;;24.30;63.60;;;;;;4992412;28;20229;-80
2022/10/01 13:08:59;;;;;;;7.77;4.63;;;24.40;62.60;;;;;;4992066;28;20207;-82
2022/10/01 13:11:57;;;;;;;6.27;5.67;;;24.50;61.90;;;;;;4995525;28;20209;-82
2022/10/01 13:14:25;;;;;;;5.77;5.20;;;24.50;60.70;;;;;;4999737;28;20209;-82
2022/10/01 13:16:59;;;;;;;5.93;5.10;;;24.50;60.90;;;;;;4976345;28;20212;-80